Time;durP1;ratioP1;P1;durP2;ratioP2;P2;SDS_P1;SDS_P2;PMS_P1;PMS_P2;Temp;Humidity;BMP_temperature;BMP_pressure;BME280_temperature;BME280_humidity;BME280_pressure;Samples;Min_cycle;Max_cycle;Signal;HPM_P1;HPM_P2
2022/05/15 00:02:04;;;;;;;0.50;0.50;;;16.40;99.90;;;;;;5055759;28;20544;-82
2022/05/15 00:04:30;;;;;;;0.20;0.20;;;16.50;99.90;;;;;;5056047;28;20214;-83
2022/05/15 00:06:56;;;;;;;0.27;0.27;;;16.40;99.90;;;;;;5058599;28;20280;-82
2022/05/15 00:09:21;;;;;;;0.60;0.53;;;16.50;99.90;;;;;;5039605;28;20284;-83
2022/05/15 00:11:47;;;;;;;0.40;0.30;;;16.40;99.90;;;;;;5039506;28;20251;-83
2022/05/15 00:14:13;;;;;;;0.30;0.30;;;16.30;99.90;;;;;;5037637;28;20185;-83
2022/05/15 00:16:39;;;;;;;0.27;0.27;;;16.30;99.90;;;;;;5040345;28;20198;-82
2022/05/15 00:19:04;;;;;;;0.83;0.60;;;16.10;99.90;;;;;;5040681;28;20273;-82
2022/05/15 00:21:30;;;;;;;0.57;0.40;;;15.70;99.90;;;;;;5055887;28;20216;-81
2022/05/15 00:23:55;;;;;;;0.37;0.37;;;15.70;99.90;;;;;;5056353;28;20188;-82
2022/05/15 00:26:21;;;;;;;0.50;0.50;;;15.80;99.90;;;;;;5037758;28;20574;-83
2022/05/15 00:28:46;;;;;;;0.40;0.30;;;15.90;99.90;;;;;;5038181;28;20189;-82
2022/05/15 00:31:12;;;;;;;0.20;0.20;;;15.80;99.90;;;;;;5057369;28;20213;-82
2022/05/15 00:33:38;;;;;;;0.60;0.50;;;15.90;99.90;;;;;;5039634;28;20188;-82
2022/05/15 00:36:04;;;;;;;0.30;0.30;;;15.90;99.90;;;;;;5037573;28;20197;-82
2022/05/15 00:38:30;;;;;;;0.50;0.50;;;15.90;99.90;;;;;;5056258;28;21741;-82
2022/05/15 00:40:57;;;;;;;0.40;0.40;;;15.80;99.90;;;;;;5056415;28;20186;-84
2022/05/15 00:43:45;;;;;;;0.50;0.50;;;15.50;99.90;;;;;;5070107;28;20210;-82
2022/05/15 00:46:17;;;;;;;0.20;0.20;;;15.60;99.90;;;;;;5056082;28;20209;-82
2022/05/15 00:48:43;;;;;;;2.47;0.67;;;15.60;99.90;;;;;;5056588;28;20193;-82
2022/05/15 00:51:15;;;;;;;0.30;0.30;;;15.60;99.90;;;;;;5057075;28;20207;-82
2022/05/15 00:53:42;;;;;;;0.30;0.30;;;15.70;99.90;;;;;;5037473;28;20193;-82
2022/05/15 00:56:11;;;;;;;0.33;0.33;;;15.60;99.90;;;;;;5040386;28;20666;-83
2022/05/15 00:58:40;;;;;;;0.40;0.40;;;15.70;99.90;;;;;;5071123;28;20556;-83
2022/05/15 01:01:07;;;;;;;0.40;0.40;;;15.70;99.90;;;;;;5057985;28;20181;-83
2022/05/15 01:03:33;;;;;;;0.40;0.40;;;15.70;99.90;;;;;;5068662;28;21252;-84
2022/05/15 01:05:59;;;;;;;0.50;0.50;;;15.80;99.90;;;;;;5036942;28;20209;-83
2022/05/15 01:08:27;;;;;;;0.20;0.20;;;15.60;99.90;;;;;;5055040;28;20204;-83
2022/05/15 01:10:58;;;;;;;0.40;0.40;;;15.50;99.90;;;;;;5057586;28;20214;-83
2022/05/15 01:13:30;;;;;;;0.30;0.30;;;15.50;99.90;;;;;;5037359;28;20693;-83
2022/05/15 01:15:55;;;;;;;0.83;0.83;;;15.50;99.90;;;;;;5037675;28;20228;-81
2022/05/15 01:18:28;;;;;;;0.70;0.70;;;15.30;99.90;;;;;;5038161;28;20228;-81
2022/05/15 01:20:59;;;;;;;0.23;0.20;;;15.30;99.90;;;;;;5071316;28;20916;-82
2022/05/15 01:23:25;;;;;;;0.60;0.33;;;15.30;99.90;;;;;;5038500;28;20191;-83
2022/05/15 01:25:51;;;;;;;5.50;0.43;;;15.30;99.90;;;;;;5054889;28;20303;-82
2022/05/15 01:28:23;;;;;;;0.30;0.30;;;15.30;99.90;;;;;;5039742;28;20272;-82
2022/05/15 01:30:53;;;;;;;1.80;0.43;;;15.20;99.90;;;;;;5037841;28;20204;-82
2022/05/15 01:33:19;;;;;;;0.40;0.40;;;15.30;99.90;;;;;;5036777;28;20209;-84
2022/05/15 01:35:45;;;;;;;0.70;0.60;;;15.30;99.90;;;;;;5041362;28;20674;-82
2022/05/15 01:38:11;;;;;;;0.50;0.50;;;15.30;99.90;;;;;;5039863;28;20189;-84
2022/05/15 01:40:38;;;;;;;0.40;0.40;;;15.30;99.90;;;;;;5056027;28;20197;-83
2022/05/15 01:43:06;;;;;;;0.40;0.40;;;15.10;99.90;;;;;;5039394;28;20180;-82
2022/05/15 01:45:31;;;;;;;0.33;0.33;;;15.00;99.90;;;;;;5036716;28;20204;-83
2022/05/15 01:47:57;;;;;;;0.90;0.40;;;15.00;99.90;;;;;;5036245;28;20203;-83
2022/05/15 01:50:23;;;;;;;0.50;0.50;;;15.00;99.90;;;;;;5054580;28;20185;-83
2022/05/15 01:52:48;;;;;;;0.40;0.40;;;14.90;99.90;;;;;;5037436;28;20643;-83
2022/05/15 01:55:14;;;;;;;0.30;0.30;;;14.80;99.90;;;;;;5037265;28;20207;-83
2022/05/15 01:57:40;;;;;;;1.33;0.53;;;14.80;99.90;;;;;;5041346;28;20641;-82
2022/05/15 02:00:09;;;;;;;0.40;0.40;;;14.90;99.90;;;;;;5041932;28;20193;-83
2022/05/15 02:02:35;;;;;;;0.40;0.40;;;14.80;99.90;;;;;;5042688;28;20189;-82
2022/05/15 02:05:01;;;;;;;0.40;0.40;;;14.90;99.90;;;;;;5042351;28;20697;-82
2022/05/15 02:07:26;;;;;;;0.60;0.60;;;14.90;99.90;;;;;;5073624;28;20224;-83
2022/05/15 02:09:52;;;;;;;0.60;0.43;;;14.70;99.90;;;;;;5059769;28;20226;-83
2022/05/15 02:12:17;;;;;;;0.30;0.30;;;14.70;99.90;;;;;;5059969;28;20204;-84
2022/05/15 02:14:43;;;;;;;0.40;0.40;;;14.70;99.90;;;;;;5076359;28;20223;-82
2022/05/15 02:17:08;;;;;;;0.60;0.60;;;14.60;99.90;;;;;;5039850;28;20192;-83
2022/05/15 02:19:34;;;;;;;0.50;0.50;;;14.60;99.90;;;;;;5059587;28;20189;-82
2022/05/15 02:21:59;;;;;;;0.50;0.50;;;14.70;99.90;;;;;;5043002;28;20222;-82
2022/05/15 02:24:25;;;;;;;0.40;0.40;;;14.50;99.90;;;;;;5041058;28;20820;-83
2022/05/15 02:26:51;;;;;;;0.40;0.40;;;14.40;99.90;;;;;;5039778;28;20192;-83
2022/05/15 02:29:17;;;;;;;0.57;0.33;;;14.40;99.90;;;;;;5042347;28;20538;-83
2022/05/15 02:31:43;;;;;;;0.60;0.60;;;14.40;99.90;;;;;;5059701;28;20678;-82
2022/05/15 02:34:09;;;;;;;0.27;0.20;;;14.40;99.90;;;;;;5057860;28;20319;-83
2022/05/15 02:36:34;;;;;;;1.13;0.80;;;14.50;99.90;;;;;;5041843;28;20260;-83
2022/05/15 02:39:00;;;;;;;0.57;0.40;;;14.30;99.90;;;;;;5061118;28;20183;-83
2022/05/15 02:41:26;;;;;;;0.43;0.40;;;14.40;99.90;;;;;;5041605;28;20187;-82
2022/05/15 02:43:52;;;;;;;0.77;0.40;;;14.40;99.90;;;;;;5040476;28;20540;-82
2022/05/15 02:46:17;;;;;;;0.43;0.23;;;14.50;99.90;;;;;;5040898;28;20210;-84
2022/05/15 02:51:27;;;;;;;0.30;0.30;;;14.50;99.90;;;;;;5059062;28;20239;-81
2022/05/15 02:53:53;;;;;;;0.30;0.30;;;14.50;99.90;;;;;;5039680;28;21245;-82
2022/05/15 02:56:22;;;;;;;0.20;0.20;;;14.60;99.90;;;;;;5058651;28;21090;-82
2022/05/15 02:58:48;;;;;;;2.23;1.70;;;14.50;99.90;;;;;;5038402;28;20188;-84
2022/05/15 03:01:14;;;;;;;1.17;0.60;;;14.30;99.90;;;;;;5074543;28;20211;-83
2022/05/15 03:03:40;;;;;;;0.40;0.40;;;14.10;99.90;;;;;;5055931;28;20239;-82
2022/05/15 03:06:07;;;;;;;0.60;0.60;;;14.10;99.90;;;;;;5056786;28;20258;-82
2022/05/15 03:08:41;;;;;;;0.57;0.47;;;14.00;99.90;;;;;;5057351;28;20219;-82
2022/05/15 03:11:08;;;;;;;0.20;0.20;;;13.90;99.90;;;;;;5057221;28;20204;-83
2022/05/15 03:13:33;;;;;;;1.60;0.50;;;13.80;99.90;;;;;;5058468;28;20639;-82
2022/05/15 03:16:02;;;;;;;0.33;0.30;;;13.80;99.90;;;;;;5041251;28;20206;-82
2022/05/15 03:18:27;;;;;;;0.37;0.37;;;13.70;99.90;;;;;;5060069;28;20180;-82
2022/05/15 03:20:53;;;;;;;0.23;0.23;;;13.80;99.90;;;;;;5041250;28;20250;-83
2022/05/15 03:23:18;;;;;;;0.50;0.50;;;13.80;99.90;;;;;;5061489;28;20191;-83
2022/05/15 03:25:44;;;;;;;0.20;0.20;;;13.80;99.90;;;;;;5042857;28;20212;-82
2022/05/15 03:28:10;;;;;;;0.37;0.37;;;13.80;99.90;;;;;;5062041;28;20189;-83
2022/05/15 03:30:41;;;;;;;0.90;0.60;;;13.70;99.90;;;;;;5041433;28;20245;-82
2022/05/15 03:33:08;;;;;;;0.20;0.20;;;13.50;99.90;;;;;;5072762;28;20283;-82
2022/05/15 03:35:34;;;;;;;0.23;0.23;;;13.60;99.90;;;;;;5042377;28;20200;-82
2022/05/15 03:38:01;;;;;;;0.57;0.30;;;13.60;99.90;;;;;;5041393;28;20212;-83
2022/05/15 03:40:27;;;;;;;0.20;0.20;;;13.70;99.90;;;;;;5060865;28;21073;-82
2022/05/15 03:42:53;;;;;;;0.30;0.30;;;13.80;99.90;;;;;;5039337;28;20735;-84
2022/05/15 03:45:19;;;;;;;0.77;0.60;;;13.90;99.90;;;;;;5041318;28;20219;-83
2022/05/15 03:47:47;;;;;;;0.30;0.30;;;14.00;99.90;;;;;;5059132;28;20193;-82
2022/05/15 03:50:13;;;;;;;0.10;0.10;;;14.10;99.90;;;;;;5039184;28;20217;-84
2022/05/15 03:52:39;;;;;;;0.40;0.40;;;14.20;99.90;;;;;;5059454;28;20214;-83
2022/05/15 03:55:05;;;;;;;0.60;0.30;;;14.40;99.90;;;;;;5059282;28;20658;-84
2022/05/15 03:57:30;;;;;;;0.40;0.40;;;14.50;99.90;;;;;;5041101;28;20191;-83
2022/05/15 03:59:56;;;;;;;0.13;0.13;;;14.40;99.90;;;;;;5060792;28;20183;-83
2022/05/15 04:02:22;;;;;;;0.50;0.50;;;15.00;99.90;;;;;;5039609;28;20189;-83
2022/05/15 04:04:47;;;;;;;0.93;0.50;;;15.00;99.90;;;;;;5042257;28;20286;-83
2022/05/15 04:07:13;;;;;;;3.13;0.43;;;14.90;99.90;;;;;;5059142;28;20181;-82
2022/05/15 04:09:40;;;;;;;1.33;0.50;;;14.70;99.90;;;;;;5059156;28;20268;-82
2022/05/15 04:12:08;;;;;;;0.40;0.40;;;14.40;99.90;;;;;;5052194;28;20212;-82
2022/05/15 04:14:34;;;;;;;0.33;0.33;;;14.30;99.90;;;;;;5052769;28;20231;-81
2022/05/15 04:16:59;;;;;;;0.30;0.27;;;14.40;99.90;;;;;;5059315;28;20187;-82
2022/05/15 04:19:25;;;;;;;0.27;0.27;;;14.70;99.90;;;;;;5059430;28;20197;-83
2022/05/15 04:21:52;;;;;;;0.23;0.23;;;14.80;99.90;;;;;;5057748;28;20200;-83
2022/05/15 04:24:18;;;;;;;1.20;0.40;;;14.90;99.90;;;;;;5055825;28;20238;-83
2022/05/15 04:26:46;;;;;;;0.33;0.33;;;15.20;99.90;;;;;;5041455;28;20189;-83
2022/05/15 04:29:12;;;;;;;0.27;0.27;;;15.50;99.90;;;;;;5058756;28;20165;-82
2022/05/15 04:31:38;;;;;;;0.27;0.27;;;15.40;99.90;;;;;;5071649;28;20298;-84
2022/05/15 04:34:04;;;;;;;0.40;0.40;;;15.60;99.90;;;;;;5041588;28;20278;-82
2022/05/15 04:36:31;;;;;;;0.17;0.17;;;15.80;99.90;;;;;;5036985;28;20182;-82
2022/05/15 04:38:57;;;;;;;0.50;0.50;;;15.60;99.90;;;;;;5041747;28;20279;-82
2022/05/15 04:41:23;;;;;;;0.50;0.37;;;15.40;99.90;;;;;;5057694;28;20208;-84
2022/05/15 04:43:49;;;;;;;0.37;0.37;;;15.20;99.90;;;;;;5057893;28;20726;-84
2022/05/15 04:46:15;;;;;;;0.23;0.23;;;15.00;99.90;;;;;;5055085;28;20209;-82
2022/05/15 04:48:41;;;;;;;0.43;0.43;;;15.00;99.90;;;;;;5036664;28;20190;-83
2022/05/15 04:51:06;;;;;;;0.23;0.23;;;14.80;99.90;;;;;;5039791;28;20224;-83
2022/05/15 04:53:32;;;;;;;0.93;0.60;;;14.80;99.90;;;;;;5055982;28;20744;-83
2022/05/15 04:55:58;;;;;;;0.27;0.27;;;14.90;99.90;;;;;;5040940;28;21327;-82
2022/05/15 04:58:24;;;;;;;0.67;0.37;;;15.20;99.90;;;;;;5040142;28;20182;-82
2022/05/15 05:00:50;;;;;;;0.30;0.30;;;15.20;99.90;;;;;;5037704;28;20202;-83
2022/05/15 05:03:16;;;;;;;0.20;0.20;;;15.10;99.90;;;;;;5054753;28;20182;-83
2022/05/15 05:05:42;;;;;;;0.27;0.27;;;15.30;99.90;;;;;;5059721;28;20289;-82
2022/05/15 05:08:09;;;;;;;0.73;0.30;;;15.60;99.90;;;;;;5059616;28;20287;-83
2022/05/15 05:10:35;;;;;;;0.20;0.20;;;15.80;99.90;;;;;;5071026;28;20185;-82
2022/05/15 05:13:01;;;;;;;0.53;0.37;;;16.00;99.90;;;;;;5058802;28;20646;-83
2022/05/15 05:15:27;;;;;;;0.30;0.30;;;16.10;99.90;;;;;;5039088;28;20197;-84
2022/05/15 05:17:52;;;;;;;0.20;0.20;;;16.30;99.90;;;;;;5037249;28;20723;-82
2022/05/15 05:20:18;;;;;;;0.33;0.33;;;16.40;99.90;;;;;;5037723;28;20682;-82
2022/05/15 05:22:43;;;;;;;0.23;0.23;;;16.20;99.90;;;;;;5056737;28;20190;-82
2022/05/15 05:25:10;;;;;;;0.50;0.50;;;16.40;99.90;;;;;;5059014;28;20674;-82
2022/05/15 05:27:38;;;;;;;0.30;0.30;;;16.70;99.90;;;;;;5056414;28;20666;-82
2022/05/15 05:30:09;;;;;;;0.20;0.20;;;16.80;99.90;;;;;;5052487;28;20204;-84
2022/05/15 05:32:34;;;;;;;0.60;0.57;;;17.00;99.90;;;;;;5053531;28;20231;-84
2022/05/15 05:35:00;;;;;;;0.53;0.53;;;17.20;99.90;;;;;;5059749;28;20675;-83
2022/05/15 05:37:26;;;;;;;0.50;0.33;;;17.30;99.90;;;;;;5040203;28;20909;-82
2022/05/15 05:39:51;;;;;;;0.30;0.30;;;17.40;99.90;;;;;;5037266;28;20188;-82
2022/05/15 05:42:17;;;;;;;0.47;0.40;;;17.60;99.90;;;;;;5054612;28;20185;-82
2022/05/15 05:44:42;;;;;;;0.40;0.40;;;17.70;99.90;;;;;;5056240;28;20213;-82
2022/05/15 05:47:08;;;;;;;0.40;0.40;;;17.80;99.90;;;;;;5038109;28;20190;-81
2022/05/15 05:49:34;;;;;;;0.30;0.30;;;17.90;99.90;;;;;;5040794;28;20189;-81
2022/05/15 05:51:59;;;;;;;0.83;0.43;;;18.00;99.90;;;;;;5037621;28;20205;-82
2022/05/15 05:54:25;;;;;;;0.40;0.40;;;18.00;99.90;;;;;;5038895;28;20710;-82
2022/05/15 05:56:50;;;;;;;0.53;0.47;;;18.10;99.90;;;;;;5036761;28;20188;-82
2022/05/15 05:59:16;;;;;;;0.23;0.23;;;18.30;99.90;;;;;;5058967;28;20200;-82
2022/05/15 06:01:41;;;;;;;1.60;0.83;;;18.40;99.90;;;;;;5039570;28;20193;-82
2022/05/15 06:06:51;;;;;;;0.70;0.70;;;18.50;99.90;;;;;;5061720;28;20674;-81
2022/05/15 06:09:16;;;;;;;0.33;0.33;;;18.80;99.90;;;;;;5039730;28;20194;-81
2022/05/15 06:11:42;;;;;;;0.40;0.40;;;18.80;99.90;;;;;;5039967;28;20455;-82
2022/05/15 06:14:07;;;;;;;0.20;0.20;;;18.90;99.90;;;;;;5038738;28;20193;-81
2022/05/15 06:16:33;;;;;;;0.27;0.27;;;18.90;99.90;;;;;;5037300;28;20615;-82
2022/05/15 06:18:59;;;;;;;0.63;0.50;;;18.70;99.90;;;;;;5037700;28;20190;-80
2022/05/15 06:21:25;;;;;;;0.57;0.30;;;18.80;99.90;;;;;;5028413;28;20238;-83
2022/05/15 06:23:51;;;;;;;2.00;0.60;;;19.00;99.90;;;;;;5033730;28;20179;-81
2022/05/15 06:26:17;;;;;;;0.47;0.47;;;19.20;99.90;;;;;;5055826;28;20202;-82
2022/05/15 06:28:42;;;;;;;0.20;0.20;;;19.10;99.90;;;;;;5037639;28;20221;-83
2022/05/15 06:31:08;;;;;;;0.83;0.63;;;19.30;99.90;;;;;;5041684;28;20218;-83
2022/05/15 06:33:33;;;;;;;0.37;0.37;;;19.30;99.90;;;;;;5042223;28;20185;-82
2022/05/15 06:35:59;;;;;;;0.30;0.23;;;19.40;99.90;;;;;;5058937;28;20201;-81
2022/05/15 06:38:25;;;;;;;0.40;0.40;;;19.60;99.90;;;;;;5042370;28;20640;-82
2022/05/15 06:40:51;;;;;;;1.03;0.40;;;19.60;99.90;;;;;;5044411;28;20261;-82
2022/05/15 06:43:16;;;;;;;0.70;0.47;;;19.60;99.90;;;;;;5042294;28;20264;-82
2022/05/15 06:45:42;;;;;;;0.40;0.40;;;19.90;99.90;;;;;;5042738;28;20210;-82
2022/05/15 06:48:08;;;;;;;0.60;0.60;;;20.20;99.90;;;;;;5059741;28;20194;-82
2022/05/15 06:50:34;;;;;;;0.30;0.30;;;20.40;99.90;;;;;;5061740;28;21090;-84
2022/05/15 06:53:00;;;;;;;0.77;0.77;;;20.40;99.90;;;;;;5024497;28;20239;-82
2022/05/15 06:55:26;;;;;;;0.60;0.47;;;19.80;99.90;;;;;;5058222;28;20511;-81
2022/05/15 06:57:52;;;;;;;0.70;0.50;;;20.10;99.90;;;;;;5038197;28;20186;-84
2022/05/15 07:00:21;;;;;;;2.20;0.90;;;20.00;99.90;;;;;;5057265;28;20186;-84
2022/05/15 07:02:46;;;;;;;0.40;0.40;;;19.90;99.90;;;;;;5054433;28;21184;-83
2022/05/15 07:05:15;;;;;;;0.90;0.87;;;20.00;99.90;;;;;;5038045;28;20214;-84
2022/05/15 07:07:40;;;;;;;0.40;0.40;;;20.20;99.90;;;;;;5038970;28;20182;-85
2022/05/15 07:10:07;;;;;;;0.70;0.70;;;20.40;99.90;;;;;;5039022;28;20257;-84
2022/05/15 07:12:32;;;;;;;0.70;0.70;;;20.30;99.90;;;;;;5038894;28;20260;-83
2022/05/15 07:15:01;;;;;;;0.40;0.40;;;20.20;99.90;;;;;;5038263;28;21262;-84
2022/05/15 07:17:27;;;;;;;0.43;0.43;;;20.20;99.90;;;;;;5040637;28;20635;-83
2022/05/15 07:19:52;;;;;;;0.67;0.53;;;20.80;99.90;;;;;;5037387;28;20197;-83
2022/05/15 07:22:18;;;;;;;0.60;0.60;;;20.60;99.90;;;;;;5057476;28;20185;-83
2022/05/15 07:24:43;;;;;;;0.70;0.70;;;20.60;99.90;;;;;;5055266;28;20308;-84
2022/05/15 07:27:10;;;;;;;0.70;0.70;;;20.50;99.90;;;;;;5038920;28;20662;-84
2022/05/15 07:29:36;;;;;;;1.93;0.77;;;20.60;99.90;;;;;;5037146;28;20204;-84
2022/05/15 07:32:04;;;;;;;0.73;0.70;;;20.20;99.90;;;;;;5038316;28;20232;-83
2022/05/15 07:34:29;;;;;;;0.57;0.57;;;20.10;99.90;;;;;;5056026;28;20297;-84
2022/05/15 07:36:55;;;;;;;0.50;0.50;;;20.20;99.90;;;;;;5037146;28;20272;-84
2022/05/15 07:39:21;;;;;;;0.60;0.60;;;20.40;99.90;;;;;;5043191;28;20262;-84
2022/05/15 07:41:48;;;;;;;0.40;0.40;;;20.40;99.90;;;;;;5056464;28;20274;-84
2022/05/15 07:44:14;;;;;;;1.10;1.03;;;20.50;99.90;;;;;;5037684;28;20190;-83
2022/05/15 07:46:40;;;;;;;1.13;1.13;;;20.90;99.90;;;;;;5037877;28;20654;-84
2022/05/15 07:49:06;;;;;;;0.53;0.53;;;20.70;99.90;;;;;;5039494;28;20188;-83
2022/05/15 07:51:32;;;;;;;1.30;0.73;;;20.50;99.90;;;;;;5037405;28;20197;-84
2022/05/15 07:53:58;;;;;;;0.50;0.50;;;20.60;99.90;;;;;;5035505;28;20256;-84
2022/05/15 07:56:25;;;;;;;0.77;0.77;;;21.00;99.90;;;;;;5038394;28;20202;-84
2022/05/15 07:58:50;;;;;;;0.70;0.60;;;21.60;99.90;;;;;;5052116;28;20193;-81
2022/05/15 08:01:16;;;;;;;0.43;0.43;;;21.50;99.90;;;;;;5038334;28;20201;-81
2022/05/15 08:03:45;;;;;;;2.40;0.80;;;21.60;99.90;;;;;;5034139;28;20190;-83
2022/05/15 08:08:59;;;;;;;1.43;1.33;;;21.00;99.90;;;;;;5056951;28;20256;-83
2022/05/15 08:11:28;;;;;;;0.57;0.57;;;20.80;99.90;;;;;;5056398;28;20216;-83
2022/05/15 08:13:56;;;;;;;0.60;0.60;;;21.30;99.90;;;;;;5035482;28;20189;-83
2022/05/15 08:16:22;;;;;;;0.63;0.63;;;21.20;99.90;;;;;;5056179;28;20733;-83
2022/05/15 08:24:16;;;;;;;1.63;0.50;;;21.10;99.90;;;;;;5053302;28;21255;-83
2022/05/15 08:26:44;;;;;;;0.67;0.57;;;21.40;99.90;;;;;;5036018;28;20284;-83
2022/05/15 08:29:10;;;;;;;0.40;0.40;;;21.60;99.90;;;;;;5055716;28;20173;-83
2022/05/15 08:31:36;;;;;;;1.00;0.33;;;22.30;99.90;;;;;;5053246;28;20215;-83
2022/05/15 08:34:02;;;;;;;0.40;0.40;;;22.70;99.90;;;;;;5055856;28;20204;-82
2022/05/15 08:36:28;;;;;;;0.40;0.40;;;22.90;99.90;;;;;;5055310;28;20201;-82
2022/05/15 08:38:53;;;;;;;0.87;0.80;;;23.10;99.90;;;;;;5054264;28;20655;-82
2022/05/15 08:41:30;;;;;;;0.80;0.80;;;23.40;99.90;;;;;;5038214;28;20276;-83
2022/05/15 08:44:08;;;;;;;0.40;0.40;;;22.90;99.90;;;;;;5054442;28;20227;-84
2022/05/15 08:46:45;;;;;;;0.70;0.70;;;23.10;99.90;;;;;;5038406;28;20225;-83
2022/05/15 08:49:18;;;;;;;0.87;0.87;;;22.80;99.90;;;;;;5038231;28;20557;-82
2022/05/15 08:52:15;;;;;;;1.50;0.80;;;23.00;99.90;;;;;;5036875;28;20205;-83
2022/05/15 08:55:01;;;;;;;0.40;0.40;;;23.10;99.90;;;;;;5052749;28;20208;-83
2022/05/15 08:57:43;;;;;;;0.87;0.87;;;22.50;99.90;;;;;;5038298;28;20177;-83
2022/05/15 09:00:12;;;;;;;2.20;0.90;;;22.50;99.90;;;;;;5055581;28;20203;-82
2022/05/15 09:02:40;;;;;;;0.70;0.70;;;23.10;99.90;;;;;;5036377;28;20192;-83
2022/05/15 09:05:07;;;;;;;1.57;1.10;;;22.40;99.90;;;;;;5037186;28;20209;-84
2022/05/15 09:07:55;;;;;;;0.40;0.40;;;22.30;99.90;;;;;;5035529;28;20555;-82
2022/05/15 09:10:43;;;;;;;0.30;0.30;;;23.10;99.90;;;;;;5037081;28;20535;-83
2022/05/15 09:13:16;;;;;;;0.77;0.57;;;23.40;99.90;;;;;;5026394;28;20201;-84
2022/05/15 09:15:51;;;;;;;1.37;0.73;;;23.20;99.90;;;;;;5037056;28;20201;-84
2022/05/15 09:18:18;;;;;;;0.70;0.70;;;23.80;99.90;;;;;;5037200;28;20185;-83
2022/05/15 09:20:53;;;;;;;5.10;0.50;;;23.70;99.90;;;;;;5035182;28;20236;-81
2022/05/15 09:23:24;;;;;;;0.40;0.40;;;24.00;99.90;;;;;;5056295;28;20211;-82
2022/05/15 09:25:55;;;;;;;1.33;1.27;;;23.60;99.90;;;;;;5039998;28;20205;-83
2022/05/15 09:28:22;;;;;;;0.50;0.50;;;23.40;99.90;;;;;;5055588;28;20181;-81
2022/05/15 09:30:50;;;;;;;3.83;0.73;;;23.60;99.90;;;;;;5053812;28;20186;-81
2022/05/15 09:33:28;;;;;;;0.80;0.80;;;23.40;99.90;;;;;;5054421;28;20185;-81
2022/05/15 09:36:31;;;;;;;1.17;0.57;;;23.70;99.90;;;;;;5053798;28;20203;-82
2022/05/15 09:39:26;;;;;;;0.53;0.53;;;24.50;99.90;;;;;;5054756;28;20771;-82
2022/05/15 09:44:45;;;;;;;1.77;0.90;;;23.90;99.90;;;;;;5055373;28;20240;-81
2022/05/15 09:47:11;;;;;;;0.40;0.40;;;23.90;99.90;;;;;;5073634;28;20188;-81
2022/05/15 09:49:37;;;;;;;2.07;0.93;;;24.40;99.90;;;;;;5055388;28;20216;-82
2022/05/15 09:52:19;;;;;;;0.50;0.50;;;25.00;99.90;;;;;;5055512;28;20225;-82
2022/05/15 09:54:47;;;;;;;0.77;0.70;;;24.10;99.90;;;;;;5055271;28;20205;-81
2022/05/15 09:57:27;;;;;;;0.60;0.60;;;23.60;99.90;;;;;;5056540;28;20174;-82
2022/05/15 09:59:56;;;;;;;0.40;0.40;;;23.50;99.90;;;;;;5055315;28;20180;-81
2022/05/15 10:02:44;;;;;;;0.70;0.70;;;23.60;99.90;;;;;;5053996;28;20905;-81
2022/05/15 10:05:17;;;;;;;0.60;0.60;;;23.80;99.90;;;;;;5054068;28;20304;-80
2022/05/15 10:07:58;;;;;;;0.63;0.60;;;23.70;99.90;;;;;;5041583;28;20182;-82
2022/05/15 10:10:34;;;;;;;0.60;0.60;;;23.90;99.90;;;;;;5036327;28;20204;-82
2022/05/15 10:13:09;;;;;;;0.73;0.60;;;23.90;99.90;;;;;;5054362;28;20972;-82
2022/05/15 10:15:43;;;;;;;1.07;0.80;;;24.10;99.90;;;;;;5056576;28;20601;-82
2022/05/15 10:18:16;;;;;;;0.60;0.60;;;24.20;99.90;;;;;;5072039;28;20200;-81
2022/05/15 10:20:44;;;;;;;0.63;0.63;;;25.00;99.90;;;;;;5040741;28;20249;-81
2022/05/15 10:23:15;;;;;;;0.70;0.70;;;24.90;99.90;;;;;;5055854;28;20273;-83
2022/05/15 10:25:49;;;;;;;0.70;0.50;;;25.10;99.90;;;;;;5038242;28;20213;-82
2022/05/15 10:28:42;;;;;;;0.30;0.30;;;25.30;99.90;;;;;;5059343;28;20180;-82
2022/05/15 10:31:42;;;;;;;0.90;0.90;;;25.40;99.90;;;;;;5057022;28;20210;-83
2022/05/15 10:34:13;;;;;;;0.87;0.87;;;25.50;99.90;;;;;;5039751;28;20250;-83
2022/05/15 10:37:18;;;;;;;0.27;0.27;;;25.30;99.90;;;;;;5055659;28;20177;-85
2022/05/15 10:40:08;;;;;;;1.13;0.90;;;24.90;99.90;;;;;;5057039;28;20181;-83
2022/05/15 10:43:01;;;;;;;0.77;0.60;;;25.20;99.90;;;;;;5055723;28;20205;-83
2022/05/15 10:45:32;;;;;;;0.47;0.47;;;25.80;99.90;;;;;;5057396;28;20208;-83
2022/05/15 10:48:12;;;;;;;0.73;0.73;;;26.20;99.90;;;;;;5057838;28;20662;-82
2022/05/15 10:51:06;;;;;;;1.53;1.43;;;25.50;99.90;;;;;;5053417;28;20218;-83
2022/05/15 10:57:33;;;;;;;0.40;0.40;;;25.30;99.90;;;;;;5057452;28;20177;-82
2022/05/15 11:00:05;;;;;;;0.50;0.50;;;25.90;99.90;;;;;;5057803;28;20181;-83
2022/05/15 11:02:54;;;;;;;1.07;0.97;;;26.20;99.90;;;;;;5035611;28;20188;-82
2022/05/15 11:05:30;;;;;;;0.80;0.60;;;25.90;99.90;;;;;;5041054;28;20224;-83
2022/05/15 11:08:11;;;;;;;1.17;0.93;;;25.70;99.90;;;;;;5054057;28;20189;-83
2022/05/15 11:11:09;;;;;;;0.53;0.40;;;25.50;99.90;;;;;;5056358;28;20252;-82
2022/05/15 11:13:48;;;;;;;0.40;0.40;;;26.20;99.90;;;;;;5070869;28;20178;-81
2022/05/15 11:16:19;;;;;;;0.93;0.93;;;25.80;99.90;;;;;;5056202;28;20247;-82
2022/05/15 11:18:55;;;;;;;0.40;0.40;;;25.00;99.90;;;;;;5054221;28;20519;-83
2022/05/15 11:21:40;;;;;;;0.33;0.33;;;25.00;99.90;;;;;;5039063;28;20181;-83
2022/05/15 11:24:33;;;;;;;0.60;0.60;;;25.40;99.90;;;;;;5056721;28;20198;-83
2022/05/15 11:27:09;;;;;;;1.43;1.23;;;26.10;99.90;;;;;;5057233;28;20191;-82
2022/05/15 11:29:41;;;;;;;0.30;0.30;;;25.30;99.90;;;;;;5072674;28;20185;-83
2022/05/15 11:32:38;;;;;;;0.40;0.40;;;25.20;99.90;;;;;;5053704;28;20839;-83
2022/05/15 11:35:09;;;;;;;0.73;0.60;;;25.10;99.90;;;;;;5054276;28;20208;-82
2022/05/15 11:37:38;;;;;;;0.50;0.50;;;25.70;99.90;;;;;;5039340;28;20178;-82
2022/05/15 11:40:26;;;;;;;6.20;0.80;;;26.20;99.90;;;;;;5055021;28;20180;-83
2022/05/15 11:42:52;;;;;;;2.75;0.88;;;26.90;99.90;;;;;;5056515;28;20257;-83
2022/05/15 11:45:37;;;;;;;0.65;0.65;;;26.60;99.90;;;;;;5038290;28;20316;-82
2022/05/15 11:48:22;;;;;;;0.60;0.60;;;26.50;99.90;;;;;;5053984;28;20184;-83
2022/05/15 11:51:12;;;;;;;0.50;0.50;;;27.10;99.90;;;;;;5036154;28;20184;-83
2022/05/15 11:53:47;;;;;;;0.77;0.77;;;26.60;99.90;;;;;;5037178;28;20254;-82
2022/05/15 11:56:25;;;;;;;1.30;0.60;;;26.70;99.90;;;;;;5038145;28;20204;-83
2022/05/15 11:59:02;;;;;;;0.47;0.47;;;27.10;99.90;;;;;;5041416;28;20180;-82
2022/05/15 12:01:38;;;;;;;0.40;0.40;;;26.60;99.90;;;;;;5041899;28;20192;-82
2022/05/15 12:04:15;;;;;;;0.88;0.80;;;26.70;99.90;;;;;;5057604;28;20176;-82
2022/05/15 12:06:48;;;;;;;1.07;0.60;;;26.50;99.90;;;;;;5057887;28;20184;-83
2022/05/15 12:09:17;;;;;;;0.80;0.80;;;26.10;99.90;;;;;;5053380;28;20307;-86
2022/05/15 12:11:47;;;;;;;0.40;0.40;;;25.80;99.90;;;;;;5054802;28;20367;-82
2022/05/15 12:14:32;;;;;;;1.60;1.20;;;26.50;99.90;;;;;;5040132;28;20177;-82
2022/05/15 12:17:28;;;;;;;2.60;1.47;;;26.10;99.90;;;;;;5041482;28;20268;-84
2022/05/15 12:20:40;;;;;;;1.63;1.53;;;26.70;99.90;;;;;;5053295;28;20197;-82
2022/05/15 12:23:14;;;;;;;1.33;1.23;;;25.50;99.90;;;;;;5071363;28;20198;-82
2022/05/15 12:26:12;;;;;;;0.60;0.60;;;25.80;99.90;;;;;;5055343;28;20253;-82
2022/05/15 12:29:17;;;;;;;0.73;0.70;;;25.70;99.90;;;;;;5033446;28;20193;-82
2022/05/15 12:31:45;;;;;;;0.50;0.50;;;25.90;99.90;;;;;;5055718;28;20829;-82
2022/05/15 12:34:34;;;;;;;0.50;0.50;;;26.60;99.90;;;;;;5057787;28;20189;-83
2022/05/15 12:37:04;;;;;;;0.47;0.47;;;26.90;99.90;;;;;;5058582;28;20292;-82
2022/05/15 12:39:34;;;;;;;0.30;0.30;;;26.90;99.90;;;;;;5038031;28;20678;-82
2022/05/15 12:42:06;;;;;;;0.98;0.60;;;27.30;99.90;;;;;;5056928;28;20262;-82
2022/05/15 12:44:37;;;;;;;1.33;0.60;;;27.70;99.90;;;;;;5040127;28;20244;-83
2022/05/15 12:47:12;;;;;;;1.15;1.05;;;27.50;99.90;;;;;;5057965;28;20185;-82
2022/05/15 12:49:43;;;;;;;0.73;0.73;;;27.90;99.90;;;;;;5034477;28;21446;-82
2022/05/15 12:52:16;;;;;;;0.57;0.38;;;28.10;99.90;;;;;;5034744;28;20201;-81
2022/05/15 12:54:44;;;;;;;0.50;0.50;;;28.10;99.90;;;;;;5035134;28;20220;-81
2022/05/15 12:57:15;;;;;;;1.73;0.47;;;28.50;99.90;;;;;;5055407;28;20190;-81
2022/05/15 12:59:45;;;;;;;0.50;0.50;;;28.10;99.90;;;;;;5055552;28;20273;-81
2022/05/15 13:02:19;;;;;;;0.30;0.30;;;27.20;99.90;;;;;;5022113;28;20208;-80
2022/05/15 13:04:49;;;;;;;0.77;0.65;;;26.80;99.90;;;;;;5052723;28;20231;-80
2022/05/15 13:07:15;;;;;;;0.95;0.60;;;26.20;99.90;;;;;;5036712;28;20181;-80
2022/05/15 13:09:41;;;;;;;0.57;0.57;;;26.40;99.90;;;;;;5034256;28;20204;-81
2022/05/15 13:12:15;;;;;;;0.50;0.50;;;26.80;99.90;;;;;;5052677;28;20244;-81
2022/05/15 13:14:47;;;;;;;0.88;0.88;;;27.10;99.90;;;;;;5038594;28;20713;-80
2022/05/15 13:17:21;;;;;;;1.15;1.05;;;27.00;99.90;;;;;;5054060;28;20774;-81
2022/05/15 13:19:48;;;;;;;1.13;0.68;;;26.70;99.90;;;;;;5056130;28;20238;-81
2022/05/15 13:22:20;;;;;;;0.68;0.68;;;26.40;99.90;;;;;;5053597;28;20200;-81
2022/05/15 13:24:48;;;;;;;0.35;0.35;;;26.80;99.90;;;;;;5051784;28;20201;-81